sensor_id;sensor_type;location;lat;lon;timestamp;pressure;altitude;pressure_sealevel;temperature;humidity
28008;BME280;15333;50.010;20.020;2024-01-10T00:00:57;100633.47;;;-16.09;100.00
28008;BME280;15333;50.010;20.020;2024-01-10T00:04:18;100641.16;;;-16.09;100.00
28008;BME280;15333;50.010;20.020;2024-01-10T00:07:19;100640.59;;;-16.18;100.00
28008;BME280;15333;50.010;20.020;2024-01-10T00:10:20;100637.06;;;-16.20;100.00
28008;BME280;15333;50.010;20.020;2024-01-10T00:13:22;100647.19;;;-16.37;100.00
28008;BME280;15333;50.010;20.020;2024-01-10T00:16:23;100641.09;;;-16.39;100.00
28008;BME280;15333;50.010;20.020;2024-01-10T00:19:23;100640.53;;;-16.48;100.00
28008;BME280;15333;50.010;20.020;2024-01-10T00:22:24;100635.88;;;-16.40;100.00
28008;BME280;15333;50.010;20.020;2024-01-10T00:25:25;100640.97;;;-16.27;100.00
28008;BME280;15333;50.010;20.020;2024-01-10T00:28:26;100639.66;;;-16.20;100.00
28008;BME280;15333;50.010;20.020;2024-01-10T00:31:27;100641.31;;;-16.21;100.00
28008;BME280;15333;50.010;20.020;2024-01-10T00:34:28;100630.47;;;-16.02;100.00
28008;BME280;15333;50.010;20.020;2024-01-10T00:37:28;100628.44;;;-15.93;100.00
28008;BME280;15333;50.010;20.020;2024-01-10T00:40:29;100634.59;;;-16.04;100.00
28008;BME280;15333;50.010;20.020;2024-01-10T00:43:30;100634.44;;;-16.07;100.00
28008;BME280;15333;50.010;20.020;2024-01-10T00:46:31;100640.25;;;-16.24;100.00
28008;BME280;15333;50.010;20.020;2024-01-10T00:49:31;100639.44;;;-16.23;100.00
28008;BME280;15333;50.010;20.020;2024-01-10T00:52:32;100637.88;;;-16.21;100.00
28008;BME280;15333;50.010;20.020;2024-01-10T00:55:33;100644.38;;;-16.27;100.00
28008;BME280;15333;50.010;20.020;2024-01-10T00:58:35;100642.88;;;-16.38;100.00
28008;BME280;15333;50.010;20.020;2024-01-10T01:01:36;100650.91;;;-16.32;100.00
28008;BME280;15333;50.010;20.020;2024-01-10T01:04:37;100650.13;;;-16.31;100.00
28008;BME280;15333;50.010;20.020;2024-01-10T01:07:37;100643.84;;;-16.36;100.00
28008;BME280;15333;50.010;20.020;2024-01-10T01:10:39;100642.25;;;-16.34;100.00
28008;BME280;15333;50.010;20.020;2024-01-10T01:13:39;100645.66;;;-16.48;100.00
28008;BME280;15333;50.010;20.020;2024-01-10T01:16:40;100646.84;;;-16.43;100.00
28008;BME280;15333;50.010;20.020;2024-01-10T01:19:41;100641.16;;;-16.52;100.00
28008;BME280;15333;50.010;20.020;2024-01-10T01:22:42;100646.56;;;-16.75;100.00
28008;BME280;15333;50.010;20.020;2024-01-10T01:25:43;100648.16;;;-16.77;100.00
28008;BME280;15333;50.010;20.020;2024-01-10T01:28:44;100648.47;;;-16.86;100.00
28008;BME280;15333;50.010;20.020;2024-01-10T01:31:44;100644.81;;;-16.89;100.00
28008;BME280;15333;50.010;20.020;2024-01-10T01:34:46;100644.16;;;-16.87;100.00
28008;BME280;15333;50.010;20.020;2024-01-10T01:37:47;100635.81;;;-16.55;100.00
28008;BME280;15333;50.010;20.020;2024-01-10T01:40:48;100621.75;;;-16.34;100.00
28008;BME280;15333;50.010;20.020;2024-01-10T01:43:48;100612.59;;;-16.15;100.00
28008;BME280;15333;50.010;20.020;2024-01-10T01:46:50;100618.50;;;-16.16;100.00
28008;BME280;15333;50.010;20.020;2024-01-10T01:49:50;100613.84;;;-16.09;100.00
28008;BME280;15333;50.010;20.020;2024-01-10T01:52:52;100612.72;;;-15.99;100.00
28008;BME280;15333;50.010;20.020;2024-01-10T01:55:53;100614.38;;;-16.14;100.00
28008;BME280;15333;50.010;20.020;2024-01-10T01:58:54;100609.38;;;-16.26;100.00
28008;BME280;15333;50.010;20.020;2024-01-10T02:01:55;100615.06;;;-16.17;100.00
28008;BME280;15333;50.010;20.020;2024-01-10T02:04:59;100622.72;;;-16.32;100.00
28008;BME280;15333;50.010;20.020;2024-01-10T02:07:59;100621.38;;;-16.40;100.00
28008;BME280;15333;50.010;20.020;2024-01-10T02:11:01;100625.09;;;-16.49;100.00
28008;BME280;15333;50.010;20.020;2024-01-10T02:14:03;100619.25;;;-16.47;100.00
28008;BME280;15333;50.010;20.020;2024-01-10T02:17:04;100620.13;;;-16.61;100.00
28008;BME280;15333;50.010;20.020;2024-01-10T02:20:12;100626.88;;;-16.48;100.00
28008;BME280;15333;50.010;20.020;2024-01-10T02:23:13;100618.66;;;-16.43;100.00
28008;BME280;15333;50.010;20.020;2024-01-10T02:26:15;100616.69;;;-16.47;100.00
28008;BME280;15333;50.010;20.020;2024-01-10T02:29:16;100606.00;;;-16.40;100.00
28008;BME280;15333;50.010;20.020;2024-01-10T02:32:16;100600.16;;;-16.52;100.00
28008;BME280;15333;50.010;20.020;2024-01-10T02:35:17;100603.97;;;-16.45;100.00
28008;BME280;15333;50.010;20.020;2024-01-10T02:38:18;100592.66;;;-16.06;100.00
28008;BME280;15333;50.010;20.020;2024-01-10T02:41:21;100588.81;;;-15.98;100.00
28008;BME280;15333;50.010;20.020;2024-01-10T02:44:23;100587.13;;;-15.98;100.00
28008;BME280;15333;50.010;20.020;2024-01-10T02:47:24;100586.97;;;-15.86;100.00
28008;BME280;15333;50.010;20.020;2024-01-10T02:50:24;100591.03;;;-16.04;100.00
28008;BME280;15333;50.010;20.020;2024-01-10T02:53:25;100583.44;;;-16.17;100.00
28008;BME280;15333;50.010;20.020;2024-01-10T02:56:26;100577.84;;;-16.25;100.00
28008;BME280;15333;50.010;20.020;2024-01-10T02:59:27;100578.34;;;-16.45;100.00
28008;BME280;15333;50.010;20.020;2024-01-10T03:02:28;100572.72;;;-16.40;100.00
28008;BME280;15333;50.010;20.020;2024-01-10T03:05:29;100570.41;;;-16.50;100.00
28008;BME280;15333;50.010;20.020;2024-01-10T03:08:29;100570.06;;;-16.56;100.00
28008;BME280;15333;50.010;20.020;2024-01-10T03:11:30;100569.38;;;-16.24;100.00
28008;BME280;15333;50.010;20.020;2024-01-10T03:14:33;100563.13;;;-16.14;100.00
28008;BME280;15333;50.010;20.020;2024-01-10T03:17:34;100558.88;;;-16.29;100.00
28008;BME280;15333;50.010;20.020;2024-01-10T03:20:36;100556.81;;;-16.19;100.00
28008;BME280;15333;50.010;20.020;2024-01-10T03:23:37;100556.22;;;-15.86;100.00
28008;BME280;15333;50.010;20.020;2024-01-10T03:26:38;100554.16;;;-15.77;100.00
28008;BME280;15333;50.010;20.020;2024-01-10T03:29:39;100548.41;;;-15.73;100.00
28008;BME280;15333;50.010;20.020;2024-01-10T03:32:40;100545.09;;;-16.01;100.00
28008;BME280;15333;50.010;20.020;2024-01-10T03:35:41;100550.91;;;-16.18;100.00
28008;BME280;15333;50.010;20.020;2024-01-10T03:38:43;100562.38;;;-16.27;100.00
28008;BME280;15333;50.010;20.020;2024-01-10T03:41:44;100557.19;;;-16.28;100.00
28008;BME280;15333;50.010;20.020;2024-01-10T03:44:45;100561.25;;;-16.32;100.00
28008;BME280;15333;50.010;20.020;2024-01-10T03:47:46;100557.44;;;-16.38;100.00
28008;BME280;15333;50.010;20.020;2024-01-10T03:50:50;100549.28;;;-16.46;100.00
28008;BME280;15333;50.010;20.020;2024-01-10T03:53:51;100559.72;;;-16.72;100.00
28008;BME280;15333;50.010;20.020;2024-01-10T03:56:52;100558.56;;;-16.77;100.00
28008;BME280;15333;50.010;20.020;2024-01-10T03:59:53;100549.53;;;-16.85;100.00
28008;BME280;15333;50.010;20.020;2024-01-10T04:02:53;100542.81;;;-16.83;100.00
28008;BME280;15333;50.010;20.020;2024-01-10T04:05:55;100543.63;;;-16.84;100.00
28008;BME280;15333;50.010;20.020;2024-01-10T04:08:55;100545.09;;;-16.88;100.00
28008;BME280;15333;50.010;20.020;2024-01-10T04:11:56;100542.28;;;-16.92;100.00
28008;BME280;15333;50.010;20.020;2024-01-10T04:14:57;100551.31;;;-16.97;100.00
28008;BME280;15333;50.010;20.020;2024-01-10T04:17:58;100546.91;;;-16.72;100.00
28008;BME280;15333;50.010;20.020;2024-01-10T04:20:58;100543.78;;;-16.81;100.00
28008;BME280;15333;50.010;20.020;2024-01-10T04:23:59;100557.44;;;-16.95;100.00
28008;BME280;15333;50.010;20.020;2024-01-10T04:27:00;100552.16;;;-17.12;100.00
28008;BME280;15333;50.010;20.020;2024-01-10T04:30:01;100554.13;;;-17.08;100.00
28008;BME280;15333;50.010;20.020;2024-01-10T04:33:02;100554.31;;;-17.04;100.00
28008;BME280;15333;50.010;20.020;2024-01-10T04:36:03;100555.13;;;-17.19;100.00
28008;BME280;15333;50.010;20.020;2024-01-10T04:39:04;100550.06;;;-17.04;100.00
28008;BME280;15333;50.010;20.020;2024-01-10T04:42:06;100552.00;;;-17.15;100.00
28008;BME280;15333;50.010;20.020;2024-01-10T04:45:07;100544.78;;;-17.07;100.00
28008;BME280;15333;50.010;20.020;2024-01-10T04:48:08;100550.63;;;-17.23;100.00
28008;BME280;15333;50.010;20.020;2024-01-10T04:51:09;100563.03;;;-17.29;100.00
28008;BME280;15333;50.010;20.020;2024-01-10T04:54:10;100559.00;;;-16.97;100.00
28008;BME280;15333;50.010;20.020;2024-01-10T04:57:12;100555.03;;;-17.07;100.00
28008;BME280;15333;50.010;20.020;2024-01-10T05:00:13;100550.00;;;-17.19;100.00
28008;BME280;15333;50.010;20.020;2024-01-10T05:03:13;100559.28;;;-17.21;100.00
28008;BME280;15333;50.010;20.020;2024-01-10T05:06:15;100550.41;;;-17.13;100.00
28008;BME280;15333;50.010;20.020;2024-01-10T05:09:16;100561.41;;;-17.00;100.00
28008;BME280;15333;50.010;20.020;2024-01-10T05:12:17;100568.47;;;-16.96;100.00
28008;BME280;15333;50.010;20.020;2024-01-10T05:15:18;100573.94;;;-16.90;100.00
28008;BME280;15333;50.010;20.020;2024-01-10T05:18:20;100563.06;;;-16.73;100.00
28008;BME280;15333;50.010;20.020;2024-01-10T05:21:21;100563.72;;;-16.90;100.00
28008;BME280;15333;50.010;20.020;2024-01-10T05:24:22;100556.66;;;-16.94;100.00
28008;BME280;15333;50.010;20.020;2024-01-10T05:27:23;100573.56;;;-16.69;100.00
28008;BME280;15333;50.010;20.020;2024-01-10T05:30:24;100565.81;;;-16.70;100.00
28008;BME280;15333;50.010;20.020;2024-01-10T05:33:24;100568.81;;;-16.90;100.00
28008;BME280;15333;50.010;20.020;2024-01-10T05:36:25;100571.00;;;-16.96;100.00
28008;BME280;15333;50.010;20.020;2024-01-10T05:39:26;100581.66;;;-17.03;100.00
28008;BME280;15333;50.010;20.020;2024-01-10T05:42:27;100574.38;;;-16.97;100.00
28008;BME280;15333;50.010;20.020;2024-01-10T05:45:28;100569.66;;;-16.91;100.00
28008;BME280;15333;50.010;20.020;2024-01-10T05:48:29;100572.88;;;-16.94;100.00
28008;BME280;15333;50.010;20.020;2024-01-10T05:51:31;100576.44;;;-16.92;100.00
28008;BME280;15333;50.010;20.020;2024-01-10T05:54:32;100571.81;;;-16.97;100.00
28008;BME280;15333;50.010;20.020;2024-01-10T05:57:32;100561.97;;;-17.04;100.00
28008;BME280;15333;50.010;20.020;2024-01-10T06:00:33;100559.34;;;-17.06;100.00
28008;BME280;15333;50.010;20.020;2024-01-10T06:03:34;100555.13;;;-16.78;100.00
28008;BME280;15333;50.010;20.020;2024-01-10T06:06:35;100570.53;;;-16.76;100.00
28008;BME280;15333;50.010;20.020;2024-01-10T06:09:35;100580.19;;;-16.72;100.00
28008;BME280;15333;50.010;20.020;2024-01-10T06:12:36;100577.50;;;-16.88;100.00
28008;BME280;15333;50.010;20.020;2024-01-10T06:15:38;100575.25;;;-16.69;100.00
28008;BME280;15333;50.010;20.020;2024-01-10T06:18:39;100562.66;;;-16.37;100.00
28008;BME280;15333;50.010;20.020;2024-01-10T06:21:40;100568.75;;;-16.35;100.00
28008;BME280;15333;50.010;20.020;2024-01-10T06:24:41;100573.06;;;-16.34;100.00
28008;BME280;15333;50.010;20.020;2024-01-10T06:27:41;100570.34;;;-16.37;100.00
28008;BME280;15333;50.010;20.020;2024-01-10T06:30:42;100580.03;;;-16.46;100.00
28008;BME280;15333;50.010;20.020;2024-01-10T06:33:43;100569.78;;;-16.46;100.00
28008;BME280;15333;50.010;20.020;2024-01-10T06:36:44;100569.78;;;-16.46;100.00
28008;BME280;15333;50.010;20.020;2024-01-10T06:39:45;100571.19;;;-16.51;100.00
28008;BME280;15333;50.010;20.020;2024-01-10T06:42:46;100567.50;;;-16.27;100.00
28008;BME280;15333;50.010;20.020;2024-01-10T06:45:48;100567.00;;;-16.06;100.00
28008;BME280;15333;50.010;20.020;2024-01-10T06:48:48;100556.91;;;-16.03;100.00
28008;BME280;15333;50.010;20.020;2024-01-10T06:51:50;100551.09;;;-16.15;100.00
28008;BME280;15333;50.010;20.020;2024-01-10T06:54:53;100559.91;;;-15.81;100.00
28008;BME280;15333;50.010;20.020;2024-01-10T06:57:53;100553.75;;;-15.54;100.00
28008;BME280;15333;50.010;20.020;2024-01-10T07:00:55;100550.84;;;-15.60;100.00
28008;BME280;15333;50.010;20.020;2024-01-10T07:03:55;100555.72;;;-15.48;100.00
28008;BME280;15333;50.010;20.020;2024-01-10T07:06:56;100554.06;;;-15.48;100.00
28008;BME280;15333;50.010;20.020;2024-01-10T07:09:57;100551.19;;;-15.54;100.00
28008;BME280;15333;50.010;20.020;2024-01-10T07:12:58;100549.75;;;-15.49;100.00
28008;BME280;15333;50.010;20.020;2024-01-10T07:15:59;100555.69;;;-15.50;100.00
28008;BME280;15333;50.010;20.020;2024-01-10T07:19:02;100548.22;;;-15.14;100.00
28008;BME280;15333;50.010;20.020;2024-01-10T07:22:04;100560.91;;;-15.01;100.00
28008;BME280;15333;50.010;20.020;2024-01-10T07:25:05;100549.28;;;-14.78;100.00
28008;BME280;15333;50.010;20.020;2024-01-10T07:28:06;100544.69;;;-14.51;100.00
28008;BME280;15333;50.010;20.020;2024-01-10T07:31:07;100557.38;;;-14.38;100.00
28008;BME280;15333;50.010;20.020;2024-01-10T07:34:08;100550.63;;;-14.52;100.00
28008;BME280;15333;50.010;20.020;2024-01-10T07:37:09;100560.19;;;-14.66;100.00
28008;BME280;15333;50.010;20.020;2024-01-10T07:40:11;100560.91;;;-14.52;100.00
28008;BME280;15333;50.010;20.020;2024-01-10T07:43:12;100558.75;;;-14.27;100.00
28008;BME280;15333;50.010;20.020;2024-01-10T07:46:12;100561.00;;;-14.51;100.00
28008;BME280;15333;50.010;20.020;2024-01-10T07:49:13;100558.88;;;-14.08;100.00
28008;BME280;15333;50.010;20.020;2024-01-10T07:52:17;100555.84;;;-13.65;100.00
28008;BME280;15333;50.010;20.020;2024-01-10T07:55:18;100554.81;;;-13.51;100.00
28008;BME280;15333;50.010;20.020;2024-01-10T07:58:18;100549.91;;;-13.64;100.00
28008;BME280;15333;50.010;20.020;2024-01-10T08:01:19;100555.09;;;-13.80;100.00
28008;BME280;15333;50.010;20.020;2024-01-10T08:04:20;100555.44;;;-13.91;100.00
28008;BME280;15333;50.010;20.020;2024-01-10T08:07:21;100555.34;;;-14.10;100.00
28008;BME280;15333;50.010;20.020;2024-01-10T08:10:23;100551.09;;;-13.92;100.00
28008;BME280;15333;50.010;20.020;2024-01-10T08:13:24;100555.38;;;-13.92;100.00
28008;BME280;15333;50.010;20.020;2024-01-10T08:16:25;100555.25;;;-13.42;100.00
28008;BME280;15333;50.010;20.020;2024-01-10T08:19:29;100563.06;;;-13.58;100.00
28008;BME280;15333;50.010;20.020;2024-01-10T08:22:30;100554.81;;;-13.33;100.00
28008;BME280;15333;50.010;20.020;2024-01-10T08:25:31;100563.81;;;-13.43;100.00
28008;BME280;15333;50.010;20.020;2024-01-10T08:28:31;100563.94;;;-13.22;100.00
28008;BME280;15333;50.010;20.020;2024-01-10T08:31:33;100564.50;;;-13.28;100.00
28008;BME280;15333;50.010;20.020;2024-01-10T08:34:33;100564.81;;;-13.22;100.00
28008;BME280;15333;50.010;20.020;2024-01-10T08:37:34;100566.88;;;-12.95;100.00
28008;BME280;15333;50.010;20.020;2024-01-10T08:40:35;100554.94;;;-12.74;100.00
28008;BME280;15333;50.010;20.020;2024-01-10T08:43:36;100550.53;;;-12.77;100.00
28008;BME280;15333;50.010;20.020;2024-01-10T08:46:37;100551.75;;;-12.88;100.00
28008;BME280;15333;50.010;20.020;2024-01-10T08:49:38;100555.31;;;-13.03;100.00
28008;BME280;15333;50.010;20.020;2024-01-10T08:52:39;100560.91;;;-12.94;100.00
28008;BME280;15333;50.010;20.020;2024-01-10T08:55:40;100545.25;;;-12.80;100.00
28008;BME280;15333;50.010;20.020;2024-01-10T08:58:40;100548.38;;;-12.68;100.00
28008;BME280;15333;50.010;20.020;2024-01-10T09:01:41;100547.75;;;-12.43;100.00
28008;BME280;15333;50.010;20.020;2024-01-10T09:04:43;100541.66;;;-12.05;100.00
28008;BME280;15333;50.010;20.020;2024-01-10T09:07:44;100538.00;;;-11.89;100.00
28008;BME280;15333;50.010;20.020;2024-01-10T09:10:44;100536.09;;;-11.72;100.00
28008;BME280;15333;50.010;20.020;2024-01-10T09:13:45;100540.22;;;-11.55;100.00
28008;BME280;15333;50.010;20.020;2024-01-10T09:16:46;100534.38;;;-11.51;100.00
28008;BME280;15333;50.010;20.020;2024-01-10T09:19:47;100534.66;;;-11.43;100.00
28008;BME280;15333;50.010;20.020;2024-01-10T09:22:48;100536.97;;;-11.29;100.00
28008;BME280;15333;50.010;20.020;2024-01-10T09:25:49;100527.06;;;-11.18;100.00
28008;BME280;15333;50.010;20.020;2024-01-10T09:28:50;100528.31;;;-10.85;100.00
28008;BME280;15333;50.010;20.020;2024-01-10T09:31:51;100518.34;;;-10.76;100.00
28008;BME280;15333;50.010;20.020;2024-01-10T09:34:52;100516.03;;;-10.68;100.00
28008;BME280;15333;50.010;20.020;2024-01-10T09:37:53;100511.97;;;-10.61;100.00
28008;BME280;15333;50.010;20.020;2024-01-10T09:40:59;100503.81;;;-10.48;100.00
28008;BME280;15333;50.010;20.020;2024-01-10T09:44:03;100497.88;;;-10.70;100.00
28008;BME280;15333;50.010;20.020;2024-01-10T09:47:04;100481.75;;;-10.62;100.00
28008;BME280;15333;50.010;20.020;2024-01-10T09:50:06;100483.00;;;-10.51;100.00
28008;BME280;15333;50.010;20.020;2024-01-10T09:53:15;100483.84;;;-10.27;100.00
28008;BME280;15333;50.010;20.020;2024-01-10T09:56:19;100480.06;;;-9.84;100.00
28008;BME280;15333;50.010;20.020;2024-01-10T09:59:20;100483.53;;;-9.57;100.00
28008;BME280;15333;50.010;20.020;2024-01-10T10:02:21;100467.84;;;-9.35;100.00
28008;BME280;15333;50.010;20.020;2024-01-10T10:05:25;100470.94;;;-9.18;100.00
28008;BME280;15333;50.010;20.020;2024-01-10T10:08:26;100471.66;;;-9.24;100.00
28008;BME280;15333;50.010;20.020;2024-01-10T10:11:26;100469.97;;;-9.22;99.85
28008;BME280;15333;50.010;20.020;2024-01-10T10:14:28;100462.41;;;-9.14;99.86
28008;BME280;15333;50.010;20.020;2024-01-10T10:17:30;100464.34;;;-9.07;100.00
28008;BME280;15333;50.010;20.020;2024-01-10T10:20:31;100472.19;;;-9.05;100.00
28008;BME280;15333;50.010;20.020;2024-01-10T10:23:33;100463.75;;;-8.98;99.84
28008;BME280;15333;50.010;20.020;2024-01-10T10:26:34;100465.78;;;-8.57;99.22
28008;BME280;15333;50.010;20.020;2024-01-10T10:29:36;100459.88;;;-8.53;100.00
28008;BME280;15333;50.010;20.020;2024-01-10T10:32:38;100460.03;;;-8.47;99.02
28008;BME280;15333;50.010;20.020;2024-01-10T10:35:38;100457.78;;;-8.64;98.24
28008;BME280;15333;50.010;20.020;2024-01-10T10:38:40;100453.31;;;-8.39;99.64
28008;BME280;15333;50.010;20.020;2024-01-10T10:41:42;100456.66;;;-8.43;98.59
28008;BME280;15333;50.010;20.020;2024-01-10T10:44:44;100455.28;;;-8.28;98.19
28008;BME280;15333;50.010;20.020;2024-01-10T10:47:46;100458.22;;;-8.15;99.61
28008;BME280;15333;50.010;20.020;2024-01-10T10:51:07;100457.13;;;-8.24;98.48
28008;BME280;15333;50.010;20.020;2024-01-10T10:54:09;100453.59;;;-8.26;98.29
28008;BME280;15333;50.010;20.020;2024-01-10T10:57:13;100443.47;;;-8.17;98.41
28008;BME280;15333;50.010;20.020;2024-01-10T11:00:17;100438.97;;;-8.23;99.54
28008;BME280;15333;50.010;20.020;2024-01-10T11:03:20;100438.88;;;-7.93;98.80
28008;BME280;15333;50.010;20.020;2024-01-10T11:06:22;100434.38;;;-8.00;97.49
28008;BME280;15333;50.010;20.020;2024-01-10T11:09:24;100438.81;;;-7.96;99.16
28008;BME280;15333;50.010;20.020;2024-01-10T11:22:15;100432.78;;;-7.58;96.82
28008;BME280;15333;50.010;20.020;2024-01-10T11:25:22;100431.47;;;-7.40;96.31
28008;BME280;15333;50.010;20.020;2024-01-10T11:28:25;100433.13;;;-7.42;96.40
28008;BME280;15333;50.010;20.020;2024-01-10T11:31:29;100426.44;;;-7.31;95.97
28008;BME280;15333;50.010;20.020;2024-01-10T11:34:30;100428.75;;;-7.45;96.55
28008;BME280;15333;50.010;20.020;2024-01-10T11:37:44;100431.50;;;-7.37;96.63
28008;BME280;15333;50.010;20.020;2024-01-10T11:40:46;100424.63;;;-7.35;97.73
28008;BME280;15333;50.010;20.020;2024-01-10T11:47:13;100424.06;;;-6.80;95.26
28008;BME280;15333;50.010;20.020;2024-01-10T11:50:18;100420.69;;;-6.75;95.20
28008;BME280;15333;50.010;20.020;2024-01-10T11:56:42;100409.97;;;-6.46;96.12
28008;BME280;15333;50.010;20.020;2024-01-10T11:59:43;100413.56;;;-6.40;94.71
28008;BME280;15333;50.010;20.020;2024-01-10T12:02:48;100408.78;;;-6.63;95.51
28008;BME280;15333;50.010;20.020;2024-01-10T12:05:49;100415.69;;;-6.65;94.28
28008;BME280;15333;50.010;20.020;2024-01-10T12:08:51;100417.22;;;-6.77;94.58
28008;BME280;15333;50.010;20.020;2024-01-10T12:11:52;100413.03;;;-6.68;95.26
28008;BME280;15333;50.010;20.020;2024-01-10T12:14:53;100426.78;;;-6.76;95.02
28008;BME280;15333;50.010;20.020;2024-01-10T12:17:54;100422.56;;;-6.67;94.27
28008;BME280;15333;50.010;20.020;2024-01-10T12:20:55;100424.44;;;-6.60;94.91
28008;BME280;15333;50.010;20.020;2024-01-10T12:23:56;100419.63;;;-6.39;95.61
28008;BME280;15333;50.010;20.020;2024-01-10T12:26:58;100414.66;;;-6.27;95.53
28008;BME280;15333;50.010;20.020;2024-01-10T12:30:00;100398.66;;;-6.48;94.88
28008;BME280;15333;50.010;20.020;2024-01-10T12:33:03;100395.81;;;-6.62;94.66
28008;BME280;15333;50.010;20.020;2024-01-10T12:36:09;100386.66;;;-6.40;94.26
28008;BME280;15333;50.010;20.020;2024-01-10T12:39:11;100374.88;;;-6.17;94.54
28008;BME280;15333;50.010;20.020;2024-01-10T12:42:12;100368.91;;;-6.11;94.48
28008;BME280;15333;50.010;20.020;2024-01-10T12:45:25;100366.38;;;-6.07;95.28
28008;BME280;15333;50.010;20.020;2024-01-10T12:48:26;100366.53;;;-5.98;94.83
28008;BME280;15333;50.010;20.020;2024-01-10T12:51:28;100357.16;;;-5.83;93.72
28008;BME280;15333;50.010;20.020;2024-01-10T12:54:29;100352.91;;;-5.75;94.30
28008;BME280;15333;50.010;20.020;2024-01-10T12:57:30;100347.69;;;-5.75;94.58
28008;BME280;15333;50.010;20.020;2024-01-10T13:00:34;100347.81;;;-5.69;93.77
28008;BME280;15333;50.010;20.020;2024-01-10T13:03:35;100349.53;;;-5.68;95.15
28008;BME280;15333;50.010;20.020;2024-01-10T13:06:36;100348.00;;;-5.54;93.73
28008;BME280;15333;50.010;20.020;2024-01-10T13:09:37;100341.09;;;-5.52;95.02
28008;BME280;15333;50.010;20.020;2024-01-10T13:12:38;100339.47;;;-5.44;93.71
28008;BME280;15333;50.010;20.020;2024-01-10T13:15:39;100341.34;;;-5.34;94.77
28008;BME280;15333;50.010;20.020;2024-01-10T13:18:40;100346.72;;;-5.22;94.00
28008;BME280;15333;50.010;20.020;2024-01-10T13:21:42;100340.97;;;-4.93;94.70
28008;BME280;15333;50.010;20.020;2024-01-10T13:24:42;100333.19;;;-4.90;93.82
28008;BME280;15333;50.010;20.020;2024-01-10T13:27:44;100335.81;;;-4.87;94.23
28008;BME280;15333;50.010;20.020;2024-01-10T13:30:46;100333.19;;;-4.90;93.78
28008;BME280;15333;50.010;20.020;2024-01-10T13:33:47;100337.44;;;-4.98;94.07
28008;BME280;15333;50.010;20.020;2024-01-10T13:36:48;100345.97;;;-5.10;94.34
28008;BME280;15333;50.010;20.020;2024-01-10T13:39:49;100345.06;;;-5.14;94.21
28008;BME280;15333;50.010;20.020;2024-01-10T13:42:49;100336.22;;;-5.25;94.10
28008;BME280;15333;50.010;20.020;2024-01-10T13:45:51;100343.25;;;-5.21;93.50
28008;BME280;15333;50.010;20.020;2024-01-10T13:48:52;100336.19;;;-5.28;94.28
28008;BME280;15333;50.010;20.020;2024-01-10T13:51:54;100322.97;;;-5.40;93.31
28008;BME280;15333;50.010;20.020;2024-01-10T13:54:55;100322.81;;;-5.54;94.66
28008;BME280;15333;50.010;20.020;2024-01-10T13:57:56;100323.44;;;-5.71;94.35
28008;BME280;15333;50.010;20.020;2024-01-10T14:00:57;100325.81;;;-5.88;93.33
28008;BME280;15333;50.010;20.020;2024-01-10T14:03:58;100328.44;;;-5.88;94.59
28008;BME280;15333;50.010;20.020;2024-01-10T14:06:59;100333.53;;;-5.96;93.82
28008;BME280;15333;50.010;20.020;2024-01-10T14:10:00;100330.06;;;-5.95;94.59
28008;BME280;15333;50.010;20.020;2024-01-10T14:13:01;100325.81;;;-5.91;94.87
28008;BME280;15333;50.010;20.020;2024-01-10T14:16:02;100325.81;;;-5.91;94.56
28008;BME280;15333;50.010;20.020;2024-01-10T14:19:03;100325.47;;;-6.11;95.40
28008;BME280;15333;50.010;20.020;2024-01-10T14:22:04;100320.19;;;-6.18;94.55
28008;BME280;15333;50.010;20.020;2024-01-10T14:25:05;100315.72;;;-6.24;95.52
28008;BME280;15333;50.010;20.020;2024-01-10T14:28:06;100314.47;;;-6.49;95.13
28008;BME280;15333;50.010;20.020;2024-01-10T14:31:08;100308.94;;;-6.65;95.44
28008;BME280;15333;50.010;20.020;2024-01-10T14:34:10;100305.44;;;-6.67;95.13
28008;BME280;15333;50.010;20.020;2024-01-10T14:37:11;100292.59;;;-6.58;95.23
28008;BME280;15333;50.010;20.020;2024-01-10T14:40:12;100302.63;;;-6.80;96.78
28008;BME280;15333;50.010;20.020;2024-01-10T14:43:13;100299.63;;;-7.01;96.47
28008;BME280;15333;50.010;20.020;2024-01-10T14:46:14;100305.56;;;-7.08;95.83
28008;BME280;15333;50.010;20.020;2024-01-10T14:49:14;100308.69;;;-7.24;96.22
28008;BME280;15333;50.010;20.020;2024-01-10T14:52:15;100308.34;;;-7.42;96.20
28008;BME280;15333;50.010;20.020;2024-01-10T14:55:16;100314.19;;;-7.54;97.88
28008;BME280;15333;50.010;20.020;2024-01-10T14:58:17;100313.31;;;-7.55;97.66
28008;BME280;15333;50.010;20.020;2024-01-10T15:01:18;100307.72;;;-7.31;96.92
28008;BME280;15333;50.010;20.020;2024-01-10T15:04:20;100304.84;;;-7.44;98.56
28008;BME280;15333;50.010;20.020;2024-01-10T15:07:21;100305.13;;;-7.71;99.04
28008;BME280;15333;50.010;20.020;2024-01-10T15:10:22;100300.44;;;-7.89;99.26
28008;BME280;15333;50.010;20.020;2024-01-10T15:13:23;100300.09;;;-8.04;98.12
28008;BME280;15333;50.010;20.020;2024-01-10T15:16:24;100308.44;;;-8.17;98.76
28008;BME280;15333;50.010;20.020;2024-01-10T15:19:25;100311.66;;;-8.27;98.88
28008;BME280;15333;50.010;20.020;2024-01-10T15:22:26;100303.91;;;-8.26;98.45
28008;BME280;15333;50.010;20.020;2024-01-10T15:25:27;100305.28;;;-8.03;97.01
28008;BME280;15333;50.010;20.020;2024-01-10T15:28:28;100305.19;;;-8.07;96.83
28008;BME280;15333;50.010;20.020;2024-01-10T15:31:29;100301.75;;;-8.06;96.60
28008;BME280;15333;50.010;20.020;2024-01-10T15:34:30;100305.69;;;-8.23;97.87
28008;BME280;15333;50.010;20.020;2024-01-10T15:37:31;100298.81;;;-8.21;97.12